sensor_id;sensor_type;location;lat;lon;timestamp;P1;durP1;ratioP1;P2;durP2;ratioP2
21030;SDS011;61072;47.808;7.636;2022-07-29T00:02:25;7.28;;;2.80;;
21030;SDS011;61072;47.808;7.636;2022-07-29T00:04:53;3.63;;;3.08;;
21030;SDS011;61072;47.808;7.636;2022-07-29T00:07:20;6.07;;;3.42;;
21030;SDS011;61072;47.808;7.636;2022-07-29T00:09:46;4.00;;;3.00;;
21030;SDS011;61072;47.808;7.636;2022-07-29T00:12:18;3.65;;;2.75;;
21030;SDS011;61072;47.808;7.636;2022-07-29T00:14:52;4.40;;;3.05;;
21030;SDS011;61072;47.808;7.636;2022-07-29T00:17:21;5.20;;;2.67;;
21030;SDS011;61072;47.808;7.636;2022-07-29T00:19:48;3.50;;;2.85;;
21030;SDS011;61072;47.808;7.636;2022-07-29T00:22:15;7.20;;;2.97;;
21030;SDS011;61072;47.808;7.636;2022-07-29T00:24:42;4.50;;;3.13;;
21030;SDS011;61072;47.808;7.636;2022-07-29T00:27:08;7.38;;;2.92;;
21030;SDS011;61072;47.808;7.636;2022-07-29T00:29:35;7.95;;;2.95;;
21030;SDS011;61072;47.808;7.636;2022-07-29T00:32:02;4.82;;;2.85;;
21030;SDS011;61072;47.808;7.636;2022-07-29T00:34:29;6.30;;;2.70;;
21030;SDS011;61072;47.808;7.636;2022-07-29T00:37:15;6.78;;;2.88;;
21030;SDS011;61072;47.808;7.636;2022-07-29T00:39:42;4.97;;;2.65;;
21030;SDS011;61072;47.808;7.636;2022-07-29T00:42:09;3.40;;;2.45;;
21030;SDS011;61072;47.808;7.636;2022-07-29T00:44:39;4.18;;;2.67;;
21030;SDS011;61072;47.808;7.636;2022-07-29T00:47:07;4.85;;;2.42;;
21030;SDS011;61072;47.808;7.636;2022-07-29T00:49:35;7.18;;;2.75;;
21030;SDS011;61072;47.808;7.636;2022-07-29T00:52:04;5.20;;;2.35;;
21030;SDS011;61072;47.808;7.636;2022-07-29T00:54:32;7.13;;;3.15;;
21030;SDS011;61072;47.808;7.636;2022-07-29T00:57:01;5.47;;;2.97;;
21030;SDS011;61072;47.808;7.636;2022-07-29T01:02:00;6.53;;;2.63;;
21030;SDS011;61072;47.808;7.636;2022-07-29T01:04:30;2.75;;;2.53;;
21030;SDS011;61072;47.808;7.636;2022-07-29T01:06:57;3.30;;;2.38;;
21030;SDS011;61072;47.808;7.636;2022-07-29T01:09:26;5.15;;;2.70;;
21030;SDS011;61072;47.808;7.636;2022-07-29T01:12:12;4.43;;;2.65;;
21030;SDS011;61072;47.808;7.636;2022-07-29T01:14:42;4.00;;;2.25;;
21030;SDS011;61072;47.808;7.636;2022-07-29T01:17:10;3.38;;;2.30;;
21030;SDS011;61072;47.808;7.636;2022-07-29T01:19:47;5.57;;;2.67;;
21030;SDS011;61072;47.808;7.636;2022-07-29T01:31:13;4.82;;;2.40;;
21030;SDS011;61072;47.808;7.636;2022-07-29T01:33:53;4.97;;;2.20;;
21030;SDS011;61072;47.808;7.636;2022-07-29T01:36:35;3.58;;;2.30;;
21030;SDS011;61072;47.808;7.636;2022-07-29T01:39:16;5.25;;;2.50;;
21030;SDS011;61072;47.808;7.636;2022-07-29T01:42:40;5.40;;;2.65;;
21030;SDS011;61072;47.808;7.636;2022-07-29T01:44:57;3.92;;;2.50;;
21030;SDS011;61072;47.808;7.636;2022-07-29T01:47:35;2.83;;;2.28;;
21030;SDS011;61072;47.808;7.636;2022-07-29T01:50:07;3.83;;;2.30;;
21030;SDS011;61072;47.808;7.636;2022-07-29T01:52:43;6.40;;;2.60;;
21030;SDS011;61072;47.808;7.636;2022-07-29T01:55:16;5.78;;;2.65;;
21030;SDS011;61072;47.808;7.636;2022-07-29T01:57:46;5.88;;;2.65;;
21030;SDS011;61072;47.808;7.636;2022-07-29T02:00:15;5.45;;;2.03;;
21030;SDS011;61072;47.808;7.636;2022-07-29T02:02:43;5.75;;;2.45;;
21030;SDS011;61072;47.808;7.636;2022-07-29T02:05:12;6.38;;;2.53;;
21030;SDS011;61072;47.808;7.636;2022-07-29T02:07:42;9.13;;;2.67;;
21030;SDS011;61072;47.808;7.636;2022-07-29T02:10:10;5.28;;;2.80;;
21030;SDS011;61072;47.808;7.636;2022-07-29T02:12:38;5.32;;;2.20;;
21030;SDS011;61072;47.808;7.636;2022-07-29T02:15:06;4.22;;;2.40;;
21030;SDS011;61072;47.808;7.636;2022-07-29T02:17:41;4.68;;;2.33;;
21030;SDS011;61072;47.808;7.636;2022-07-29T02:20:11;4.03;;;2.10;;
21030;SDS011;61072;47.808;7.636;2022-07-29T02:22:39;5.60;;;2.47;;
21030;SDS011;61072;47.808;7.636;2022-07-29T02:25:07;4.75;;;2.20;;
21030;SDS011;61072;47.808;7.636;2022-07-29T02:27:39;3.53;;;2.10;;
21030;SDS011;61072;47.808;7.636;2022-07-29T02:30:08;6.35;;;2.42;;
21030;SDS011;61072;47.808;7.636;2022-07-29T02:32:37;2.72;;;2.15;;
21030;SDS011;61072;47.808;7.636;2022-07-29T02:35:06;4.50;;;2.13;;
21030;SDS011;61072;47.808;7.636;2022-07-29T02:37:36;3.78;;;2.15;;
21030;SDS011;61072;47.808;7.636;2022-07-29T02:40:03;4.88;;;2.25;;
21030;SDS011;61072;47.808;7.636;2022-07-29T02:42:32;4.63;;;2.45;;
21030;SDS011;61072;47.808;7.636;2022-07-29T02:45:02;3.20;;;2.50;;
21030;SDS011;61072;47.808;7.636;2022-07-29T02:50:09;3.08;;;2.38;;
21030;SDS011;61072;47.808;7.636;2022-07-29T02:57:43;3.63;;;2.30;;
21030;SDS011;61072;47.808;7.636;2022-07-29T03:00:21;3.75;;;2.45;;
21030;SDS011;61072;47.808;7.636;2022-07-29T03:02:50;4.33;;;2.57;;
21030;SDS011;61072;47.808;7.636;2022-07-29T03:05:20;2.53;;;1.90;;
21030;SDS011;61072;47.808;7.636;2022-07-29T03:07:51;3.35;;;2.60;;
21030;SDS011;61072;47.808;7.636;2022-07-29T03:10:23;4.00;;;2.50;;
21030;SDS011;61072;47.808;7.636;2022-07-29T03:12:52;3.55;;;2.28;;
21030;SDS011;61072;47.808;7.636;2022-07-29T03:15:21;2.90;;;2.15;;
21030;SDS011;61072;47.808;7.636;2022-07-29T03:17:50;5.30;;;2.22;;
21030;SDS011;61072;47.808;7.636;2022-07-29T03:20:18;3.67;;;2.33;;
21030;SDS011;61072;47.808;7.636;2022-07-29T03:22:45;3.45;;;2.20;;
21030;SDS011;61072;47.808;7.636;2022-07-29T03:25:15;3.13;;;2.40;;
21030;SDS011;61072;47.808;7.636;2022-07-29T03:27:43;4.22;;;2.42;;
21030;SDS011;61072;47.808;7.636;2022-07-29T03:30:11;4.20;;;2.40;;
21030;SDS011;61072;47.808;7.636;2022-07-29T03:32:43;3.22;;;2.60;;
21030;SDS011;61072;47.808;7.636;2022-07-29T03:35:10;6.60;;;2.47;;
21030;SDS011;61072;47.808;7.636;2022-07-29T03:37:37;3.67;;;2.13;;
21030;SDS011;61072;47.808;7.636;2022-07-29T03:40:05;2.65;;;2.15;;
21030;SDS011;61072;47.808;7.636;2022-07-29T03:42:35;2.78;;;2.13;;
21030;SDS011;61072;47.808;7.636;2022-07-29T03:45:07;3.20;;;2.20;;
21030;SDS011;61072;47.808;7.636;2022-07-29T03:47:38;5.82;;;2.40;;
21030;SDS011;61072;47.808;7.636;2022-07-29T03:50:16;6.97;;;2.40;;
21030;SDS011;61072;47.808;7.636;2022-07-29T03:52:45;4.72;;;2.30;;
21030;SDS011;61072;47.808;7.636;2022-07-29T03:55:13;4.68;;;2.30;;
21030;SDS011;61072;47.808;7.636;2022-07-29T03:57:41;4.63;;;2.45;;
21030;SDS011;61072;47.808;7.636;2022-07-29T04:00:08;7.03;;;2.33;;
21030;SDS011;61072;47.808;7.636;2022-07-29T04:02:36;3.17;;;2.30;;
21030;SDS011;61072;47.808;7.636;2022-07-29T04:05:04;5.03;;;2.35;;
21030;SDS011;61072;47.808;7.636;2022-07-29T04:07:31;4.65;;;2.00;;
21030;SDS011;61072;47.808;7.636;2022-07-29T04:09:57;3.10;;;2.30;;
21030;SDS011;61072;47.808;7.636;2022-07-29T04:12:24;5.68;;;2.42;;
21030;SDS011;61072;47.808;7.636;2022-07-29T04:14:51;2.60;;;2.10;;
21030;SDS011;61072;47.808;7.636;2022-07-29T04:17:17;2.28;;;2.08;;
21030;SDS011;61072;47.808;7.636;2022-07-29T04:19:44;3.05;;;2.40;;
21030;SDS011;61072;47.808;7.636;2022-07-29T04:22:11;4.60;;;2.92;;
21030;SDS011;61072;47.808;7.636;2022-07-29T04:24:38;3.22;;;2.70;;
21030;SDS011;61072;47.808;7.636;2022-07-29T04:27:09;4.75;;;3.05;;
21030;SDS011;61072;47.808;7.636;2022-07-29T04:29:36;6.40;;;3.00;;
21030;SDS011;61072;47.808;7.636;2022-07-29T04:32:21;4.95;;;2.72;;
21030;SDS011;61072;47.808;7.636;2022-07-29T04:34:48;3.72;;;2.72;;
21030;SDS011;61072;47.808;7.636;2022-07-29T04:37:14;5.35;;;2.88;;
21030;SDS011;61072;47.808;7.636;2022-07-29T04:39:41;5.20;;;2.50;;
21030;SDS011;61072;47.808;7.636;2022-07-29T04:42:08;4.10;;;2.78;;
21030;SDS011;61072;47.808;7.636;2022-07-29T04:44:35;6.82;;;3.03;;
21030;SDS011;61072;47.808;7.636;2022-07-29T04:47:07;5.38;;;3.03;;
21030;SDS011;61072;47.808;7.636;2022-07-29T04:49:34;4.63;;;2.78;;
21030;SDS011;61072;47.808;7.636;2022-07-29T04:52:03;4.10;;;2.78;;
21030;SDS011;61072;47.808;7.636;2022-07-29T04:54:30;4.43;;;2.55;;
21030;SDS011;61072;47.808;7.636;2022-07-29T04:56:57;8.23;;;3.40;;
21030;SDS011;61072;47.808;7.636;2022-07-29T04:59:23;7.00;;;3.03;;
21030;SDS011;61072;47.808;7.636;2022-07-29T05:01:51;5.22;;;3.20;;
21030;SDS011;61072;47.808;7.636;2022-07-29T05:04:18;4.10;;;2.50;;
21030;SDS011;61072;47.808;7.636;2022-07-29T05:06:45;9.30;;;2.90;;
21030;SDS011;61072;47.808;7.636;2022-07-29T05:09:12;5.88;;;3.03;;
21030;SDS011;61072;47.808;7.636;2022-07-29T05:11:39;7.15;;;2.80;;
21030;SDS011;61072;47.808;7.636;2022-07-29T05:14:05;5.18;;;3.40;;
21030;SDS011;61072;47.808;7.636;2022-07-29T05:16:32;3.67;;;2.38;;
21030;SDS011;61072;47.808;7.636;2022-07-29T05:18:59;4.90;;;2.90;;
21030;SDS011;61072;47.808;7.636;2022-07-29T05:21:26;3.85;;;2.80;;
21030;SDS011;61072;47.808;7.636;2022-07-29T05:23:53;7.97;;;3.08;;
21030;SDS011;61072;47.808;7.636;2022-07-29T05:26:19;12.35;;;5.97;;
21030;SDS011;61072;47.808;7.636;2022-07-29T05:28:46;8.23;;;3.63;;
21030;SDS011;61072;47.808;7.636;2022-07-29T05:31:13;5.63;;;4.30;;
21030;SDS011;61072;47.808;7.636;2022-07-29T05:33:41;8.77;;;3.10;;
21030;SDS011;61072;47.808;7.636;2022-07-29T05:36:07;5.18;;;2.78;;
21030;SDS011;61072;47.808;7.636;2022-07-29T05:38:34;3.17;;;2.80;;
21030;SDS011;61072;47.808;7.636;2022-07-29T05:41:02;3.30;;;2.75;;
21030;SDS011;61072;47.808;7.636;2022-07-29T05:43:29;7.78;;;3.35;;
21030;SDS011;61072;47.808;7.636;2022-07-29T05:45:56;6.28;;;3.60;;
21030;SDS011;61072;47.808;7.636;2022-07-29T05:48:24;6.40;;;4.30;;
21030;SDS011;61072;47.808;7.636;2022-07-29T05:50:51;4.95;;;3.13;;
21030;SDS011;61072;47.808;7.636;2022-07-29T05:53:18;7.55;;;3.60;;
21030;SDS011;61072;47.808;7.636;2022-07-29T05:55:46;4.72;;;2.95;;
21030;SDS011;61072;47.808;7.636;2022-07-29T05:58:14;4.95;;;2.80;;
21030;SDS011;61072;47.808;7.636;2022-07-29T06:00:41;3.65;;;2.72;;
21030;SDS011;61072;47.808;7.636;2022-07-29T06:03:08;4.00;;;2.70;;
21030;SDS011;61072;47.808;7.636;2022-07-29T06:05:34;6.63;;;3.45;;
21030;SDS011;61072;47.808;7.636;2022-07-29T06:08:01;6.20;;;2.85;;
21030;SDS011;61072;47.808;7.636;2022-07-29T06:10:28;4.40;;;2.70;;
21030;SDS011;61072;47.808;7.636;2022-07-29T06:12:55;4.10;;;2.92;;
21030;SDS011;61072;47.808;7.636;2022-07-29T06:15:22;6.13;;;2.60;;
21030;SDS011;61072;47.808;7.636;2022-07-29T06:17:49;7.03;;;2.90;;
21030;SDS011;61072;47.808;7.636;2022-07-29T06:20:27;3.13;;;2.83;;
21030;SDS011;61072;47.808;7.636;2022-07-29T06:22:56;5.85;;;3.13;;
21030;SDS011;61072;47.808;7.636;2022-07-29T06:25:23;3.28;;;2.65;;
21030;SDS011;61072;47.808;7.636;2022-07-29T06:27:50;4.97;;;2.80;;
21030;SDS011;61072;47.808;7.636;2022-07-29T06:30:18;3.28;;;2.60;;
21030;SDS011;61072;47.808;7.636;2022-07-29T06:32:45;3.70;;;2.88;;
21030;SDS011;61072;47.808;7.636;2022-07-29T06:35:12;6.18;;;3.40;;
21030;SDS011;61072;47.808;7.636;2022-07-29T06:37:58;3.58;;;2.92;;
21030;SDS011;61072;47.808;7.636;2022-07-29T06:40:25;6.85;;;3.20;;
21030;SDS011;61072;47.808;7.636;2022-07-29T06:43:11;3.75;;;3.15;;
21030;SDS011;61072;47.808;7.636;2022-07-29T06:45:38;3.60;;;2.60;;
21030;SDS011;61072;47.808;7.636;2022-07-29T06:48:07;3.47;;;2.38;;
21030;SDS011;61072;47.808;7.636;2022-07-29T06:50:35;3.70;;;2.63;;
21030;SDS011;61072;47.808;7.636;2022-07-29T06:53:01;4.40;;;2.85;;
21030;SDS011;61072;47.808;7.636;2022-07-29T06:55:28;4.85;;;2.75;;
21030;SDS011;61072;47.808;7.636;2022-07-29T06:57:55;7.60;;;2.83;;
21030;SDS011;61072;47.808;7.636;2022-07-29T07:00:22;8.35;;;2.90;;
21030;SDS011;61072;47.808;7.636;2022-07-29T07:02:48;7.07;;;3.55;;
21030;SDS011;61072;47.808;7.636;2022-07-29T07:05:15;4.60;;;2.92;;
21030;SDS011;61072;47.808;7.636;2022-07-29T07:07:42;4.60;;;3.08;;
21030;SDS011;61072;47.808;7.636;2022-07-29T07:10:08;5.93;;;2.60;;
21030;SDS011;61072;47.808;7.636;2022-07-29T07:12:35;4.07;;;2.72;;
21030;SDS011;61072;47.808;7.636;2022-07-29T07:15:02;4.38;;;2.65;;
21030;SDS011;61072;47.808;7.636;2022-07-29T07:17:29;4.10;;;2.47;;
21030;SDS011;61072;47.808;7.636;2022-07-29T07:19:56;2.72;;;2.28;;
21030;SDS011;61072;47.808;7.636;2022-07-29T07:22:23;4.95;;;2.88;;
21030;SDS011;61072;47.808;7.636;2022-07-29T07:24:49;5.07;;;2.70;;
21030;SDS011;61072;47.808;7.636;2022-07-29T07:27:16;5.82;;;3.03;;
21030;SDS011;61072;47.808;7.636;2022-07-29T07:29:43;3.40;;;2.35;;
21030;SDS011;61072;47.808;7.636;2022-07-29T07:32:10;5.60;;;2.60;;
21030;SDS011;61072;47.808;7.636;2022-07-29T07:34:37;4.28;;;2.20;;
21030;SDS011;61072;47.808;7.636;2022-07-29T07:37:04;6.72;;;2.85;;
21030;SDS011;61072;47.808;7.636;2022-07-29T07:39:31;3.97;;;2.60;;
21030;SDS011;61072;47.808;7.636;2022-07-29T07:41:58;5.47;;;1.92;;
21030;SDS011;61072;47.808;7.636;2022-07-29T07:44:25;5.60;;;2.30;;
21030;SDS011;61072;47.808;7.636;2022-07-29T07:46:52;3.17;;;2.05;;
21030;SDS011;61072;47.808;7.636;2022-07-29T07:49:19;5.22;;;2.05;;
21030;SDS011;61072;47.808;7.636;2022-07-29T07:51:46;4.15;;;2.40;;
21030;SDS011;61072;47.808;7.636;2022-07-29T07:54:17;11.95;;;2.55;;
21030;SDS011;61072;47.808;7.636;2022-07-29T07:56:46;2.42;;;2.20;;
21030;SDS011;61072;47.808;7.636;2022-07-29T07:59:18;5.90;;;1.92;;
21030;SDS011;61072;47.808;7.636;2022-07-29T08:01:45;4.00;;;1.88;;
21030;SDS011;61072;47.808;7.636;2022-07-29T08:04:21;4.57;;;1.95;;
21030;SDS011;61072;47.808;7.636;2022-07-29T08:06:53;3.45;;;1.58;;
21030;SDS011;61072;47.808;7.636;2022-07-29T08:09:20;9.55;;;2.08;;
21030;SDS011;61072;47.808;7.636;2022-07-29T08:11:55;10.85;;;2.45;;
21030;SDS011;61072;47.808;7.636;2022-07-29T08:14:23;3.28;;;2.10;;
21030;SDS011;61072;47.808;7.636;2022-07-29T08:16:50;4.78;;;1.80;;
21030;SDS011;61072;47.808;7.636;2022-07-29T08:19:17;4.82;;;1.65;;
21030;SDS011;61072;47.808;7.636;2022-07-29T08:21:44;3.25;;;1.65;;
21030;SDS011;61072;47.808;7.636;2022-07-29T08:24:11;5.35;;;1.83;;
21030;SDS011;61072;47.808;7.636;2022-07-29T08:26:56;6.03;;;1.92;;
21030;SDS011;61072;47.808;7.636;2022-07-29T08:29:23;3.40;;;1.95;;
21030;SDS011;61072;47.808;7.636;2022-07-29T08:31:50;4.95;;;1.95;;
21030;SDS011;61072;47.808;7.636;2022-07-29T08:34:17;5.68;;;1.90;;
21030;SDS011;61072;47.808;7.636;2022-07-29T08:36:50;10.02;;;1.80;;
21030;SDS011;61072;47.808;7.636;2022-07-29T08:39:17;3.10;;;1.85;;
21030;SDS011;61072;47.808;7.636;2022-07-29T08:41:44;2.05;;;1.60;;
21030;SDS011;61072;47.808;7.636;2022-07-29T08:44:26;6.47;;;1.83;;
21030;SDS011;61072;47.808;7.636;2022-07-29T08:46:56;5.00;;;1.93;;
21030;SDS011;61072;47.808;7.636;2022-07-29T08:49:23;4.03;;;1.80;;
21030;SDS011;61072;47.808;7.636;2022-07-29T08:51:50;2.65;;;1.65;;
21030;SDS011;61072;47.808;7.636;2022-07-29T08:54:17;4.20;;;2.03;;
21030;SDS011;61072;47.808;7.636;2022-07-29T08:56:44;3.92;;;1.83;;
21030;SDS011;61072;47.808;7.636;2022-07-29T08:59:15;5.50;;;2.00;;
21030;SDS011;61072;47.808;7.636;2022-07-29T09:01:46;3.13;;;1.65;;
21030;SDS011;61072;47.808;7.636;2022-07-29T09:04:14;3.15;;;1.65;;
21030;SDS011;61072;47.808;7.636;2022-07-29T09:06:43;5.55;;;1.88;;
21030;SDS011;61072;47.808;7.636;2022-07-29T09:09:13;4.55;;;2.25;;
21030;SDS011;61072;47.808;7.636;2022-07-29T09:11:41;9.82;;;2.10;;
21030;SDS011;61072;47.808;7.636;2022-07-29T09:14:10;3.85;;;1.80;;
21030;SDS011;61072;47.808;7.636;2022-07-29T09:16:45;6.35;;;2.05;;
21030;SDS011;61072;47.808;7.636;2022-07-29T09:19:19;3.35;;;1.50;;
21030;SDS011;61072;47.808;7.636;2022-07-29T09:21:50;3.83;;;1.95;;
21030;SDS011;61072;47.808;7.636;2022-07-29T09:24:24;4.28;;;1.80;;
21030;SDS011;61072;47.808;7.636;2022-07-29T09:26:53;5.57;;;1.55;;
21030;SDS011;61072;47.808;7.636;2022-07-29T09:29:22;4.50;;;1.75;;
21030;SDS011;61072;47.808;7.636;2022-07-29T09:31:50;4.15;;;1.80;;
21030;SDS011;61072;47.808;7.636;2022-07-29T09:34:22;5.68;;;1.58;;
21030;SDS011;61072;47.808;7.636;2022-07-29T09:36:57;4.10;;;1.65;;
21030;SDS011;61072;47.808;7.636;2022-07-29T09:41:56;4.00;;;1.60;;
21030;SDS011;61072;47.808;7.636;2022-07-29T09:44:25;6.70;;;2.00;;
21030;SDS011;61072;47.808;7.636;2022-07-29T09:46:58;4.10;;;1.70;;
21030;SDS011;61072;47.808;7.636;2022-07-29T09:49:49;2.88;;;1.90;;
21030;SDS011;61072;47.808;7.636;2022-07-29T09:52:19;7.75;;;1.95;;
21030;SDS011;61072;47.808;7.636;2022-07-29T09:54:46;6.57;;;2.03;;
21030;SDS011;61072;47.808;7.636;2022-07-29T09:57:24;4.80;;;2.05;;
21030;SDS011;61072;47.808;7.636;2022-07-29T10:00:00;2.47;;;1.55;;
21030;SDS011;61072;47.808;7.636;2022-07-29T10:02:32;5.28;;;2.05;;
21030;SDS011;61072;47.808;7.636;2022-07-29T10:05:01;4.20;;;2.35;;
21030;SDS011;61072;47.808;7.636;2022-07-29T10:12:54;4.35;;;2.45;;
21030;SDS011;61072;47.808;7.636;2022-07-29T10:15:33;6.75;;;2.60;;
21030;SDS011;61072;47.808;7.636;2022-07-29T10:18:07;6.05;;;2.10;;
21030;SDS011;61072;47.808;7.636;2022-07-29T10:20:34;6.18;;;1.95;;
21030;SDS011;61072;47.808;7.636;2022-07-29T10:23:02;3.95;;;2.45;;
21030;SDS011;61072;47.808;7.636;2022-07-29T10:25:29;5.45;;;2.30;;
21030;SDS011;61072;47.808;7.636;2022-07-29T10:27:56;4.35;;;1.80;;
21030;SDS011;61072;47.808;7.636;2022-07-29T10:30:24;3.13;;;2.25;;
21030;SDS011;61072;47.808;7.636;2022-07-29T10:33:10;3.50;;;2.28;;
21030;SDS011;61072;47.808;7.636;2022-07-29T10:44:21;4.75;;;1.98;;
21030;SDS011;61072;47.808;7.636;2022-07-29T10:46:50;2.75;;;1.80;;
21030;SDS011;61072;47.808;7.636;2022-07-29T10:57:11;6.45;;;2.78;;
21030;SDS011;61072;47.808;7.636;2022-07-29T11:02:42;6.13;;;2.88;;
21030;SDS011;61072;47.808;7.636;2022-07-29T11:05:12;4.30;;;2.13;;
21030;SDS011;61072;47.808;7.636;2022-07-29T11:08:16;5.80;;;2.78;;
21030;SDS011;61072;47.808;7.636;2022-07-29T11:10:46;4.57;;;2.80;;
21030;SDS011;61072;47.808;7.636;2022-07-29T11:16:09;3.30;;;2.53;;
21030;SDS011;61072;47.808;7.636;2022-07-29T11:18:36;4.85;;;2.25;;
21030;SDS011;61072;47.808;7.636;2022-07-29T11:21:51;6.75;;;2.50;;
21030;SDS011;61072;47.808;7.636;2022-07-29T11:24:30;6.17;;;2.80;;
21030;SDS011;61072;47.808;7.636;2022-07-29T11:27:18;3.08;;;2.20;;
21030;SDS011;61072;47.808;7.636;2022-07-29T11:29:48;5.68;;;2.22;;
21030;SDS011;61072;47.808;7.636;2022-07-29T11:32:16;5.75;;;1.98;;
21030;SDS011;61072;47.808;7.636;2022-07-29T11:34:48;5.78;;;1.80;;
21030;SDS011;61072;47.808;7.636;2022-07-29T11:37:44;3.92;;;1.83;;
21030;SDS011;61072;47.808;7.636;2022-07-29T11:40:20;10.90;;;1.88;;
21030;SDS011;61072;47.808;7.636;2022-07-29T11:42:48;4.93;;;2.10;;
21030;SDS011;61072;47.808;7.636;2022-07-29T11:45:18;4.68;;;2.15;;
21030;SDS011;61072;47.808;7.636;2022-07-29T11:48:06;2.95;;;1.83;;
21030;SDS011;61072;47.808;7.636;2022-07-29T11:50:57;3.75;;;1.92;;
21030;SDS011;61072;47.808;7.636;2022-07-29T11:53:25;4.07;;;2.20;;
21030;SDS011;61072;47.808;7.636;2022-07-29T11:55:58;4.80;;;1.80;;
21030;SDS011;61072;47.808;7.636;2022-07-29T11:58:25;7.32;;;2.05;;
21030;SDS011;61072;47.808;7.636;2022-07-29T12:00:54;4.93;;;1.90;;
21030;SDS011;61072;47.808;7.636;2022-07-29T12:03:25;3.83;;;1.60;;
21030;SDS011;61072;47.808;7.636;2022-07-29T12:06:13;3.88;;;1.85;;
21030;SDS011;61072;47.808;7.636;2022-07-29T12:08:43;3.22;;;1.75;;
21030;SDS011;61072;47.808;7.636;2022-07-29T12:11:19;3.22;;;1.70;;
21030;SDS011;61072;47.808;7.636;2022-07-29T12:13:49;3.47;;;1.80;;
21030;SDS011;61072;47.808;7.636;2022-07-29T12:16:17;4.93;;;2.00;;
21030;SDS011;61072;47.808;7.636;2022-07-29T12:18:55;3.75;;;1.70;;
21030;SDS011;61072;47.808;7.636;2022-07-29T12:21:22;3.00;;;1.90;;
21030;SDS011;61072;47.808;7.636;2022-07-29T12:23:54;7.72;;;1.70;;
21030;SDS011;61072;47.808;7.636;2022-07-29T12:26:30;7.70;;;2.60;;
21030;SDS011;61072;47.808;7.636;2022-07-29T12:28:59;4.95;;;1.90;;
21030;SDS011;61072;47.808;7.636;2022-07-29T12:31:28;6.18;;;1.75;;
21030;SDS011;61072;47.808;7.636;2022-07-29T12:34:07;5.45;;;1.70;;
21030;SDS011;61072;47.808;7.636;2022-07-29T12:36:34;2.75;;;1.40;;
21030;SDS011;61072;47.808;7.636;2022-07-29T12:39:02;8.98;;;2.22;;
21030;SDS011;61072;47.808;7.636;2022-07-29T12:41:30;6.90;;;1.75;;
21030;SDS011;61072;47.808;7.636;2022-07-29T12:43:57;5.28;;;1.90;;
21030;SDS011;61072;47.808;7.636;2022-07-29T12:46:24;4.10;;;1.40;;
21030;SDS011;61072;47.808;7.636;2022-07-29T12:48:51;4.88;;;1.90;;
21030;SDS011;61072;47.808;7.636;2022-07-29T12:54:12;2.97;;;1.70;;
21030;SDS011;61072;47.808;7.636;2022-07-29T12:56:41;7.28;;;1.60;;
21030;SDS011;61072;47.808;7.636;2022-07-29T12:59:20;5.20;;;1.65;;
21030;SDS011;61072;47.808;7.636;2022-07-29T13:01:49;8.88;;;1.70;;
21030;SDS011;61072;47.808;7.636;2022-07-29T13:04:29;4.50;;;1.90;;
21030;SDS011;61072;47.808;7.636;2022-07-29T13:06:58;7.72;;;1.65;;
21030;SDS011;61072;47.808;7.636;2022-07-29T13:09:39;5.25;;;1.60;;
21030;SDS011;61072;47.808;7.636;2022-07-29T13:12:08;5.28;;;1.90;;
21030;SDS011;61072;47.808;7.636;2022-07-29T13:14:38;6.30;;;1.70;;
21030;SDS011;61072;47.808;7.636;2022-07-29T13:17:17;9.20;;;2.10;;
21030;SDS011;61072;47.808;7.636;2022-07-29T13:19:49;5.50;;;1.60;;
21030;SDS011;61072;47.808;7.636;2022-07-29T13:22:21;2.13;;;1.50;;
21030;SDS011;61072;47.808;7.636;2022-07-29T13:27:24;8.00;;;1.50;;
21030;SDS011;61072;47.808;7.636;2022-07-29T13:29:52;6.03;;;1.50;;
21030;SDS011;61072;47.808;7.636;2022-07-29T13:34:57;5.13;;;1.35;;
21030;SDS011;61072;47.808;7.636;2022-07-29T13:37:26;3.55;;;1.70;;
21030;SDS011;61072;47.808;7.636;2022-07-29T13:39:56;4.63;;;1.70;;
21030;SDS011;61072;47.808;7.636;2022-07-29T13:42:23;3.80;;;1.17;;
21030;SDS011;61072;47.808;7.636;2022-07-29T13:44:51;2.83;;;1.30;;
21030;SDS011;61072;47.808;7.636;2022-07-29T13:47:18;4.95;;;1.75;;
21030;SDS011;61072;47.808;7.636;2022-07-29T13:49:45;3.28;;;1.27;;
21030;SDS011;61072;47.808;7.636;2022-07-29T13:52:12;4.22;;;1.45;;
21030;SDS011;61072;47.808;7.636;2022-07-29T13:54:39;6.43;;;1.23;;
21030;SDS011;61072;47.808;7.636;2022-07-29T13:57:07;4.38;;;1.40;;
21030;SDS011;61072;47.808;7.636;2022-07-29T13:59:37;4.88;;;1.13;;
21030;SDS011;61072;47.808;7.636;2022-07-29T14:02:05;2.92;;;1.40;;
21030;SDS011;61072;47.808;7.636;2022-07-29T14:04:32;5.22;;;1.05;;
21030;SDS011;61072;47.808;7.636;2022-07-29T14:06:59;4.00;;;1.23;;
21030;SDS011;61072;47.808;7.636;2022-07-29T14:09:29;5.05;;;1.25;;
21030;SDS011;61072;47.808;7.636;2022-07-29T14:12:06;7.55;;;1.65;;
21030;SDS011;61072;47.808;7.636;2022-07-29T14:14:33;5.38;;;1.15;;
21030;SDS011;61072;47.808;7.636;2022-07-29T14:17:01;5.95;;;1.42;;
21030;SDS011;61072;47.808;7.636;2022-07-29T14:19:29;5.20;;;1.30;;
21030;SDS011;61072;47.808;7.636;2022-07-29T14:21:58;3.00;;;1.17;;
21030;SDS011;61072;47.808;7.636;2022-07-29T14:24:25;5.93;;;1.40;;
21030;SDS011;61072;47.808;7.636;2022-07-29T14:26:52;2.90;;;1.20;;
21030;SDS011;61072;47.808;7.636;2022-07-29T14:29:19;2.97;;;1.17;;
21030;SDS011;61072;47.808;7.636;2022-07-29T14:31:46;3.30;;;1.33;;
21030;SDS011;61072;47.808;7.636;2022-07-29T14:34:13;3.70;;;1.30;;
21030;SDS011;61072;47.808;7.636;2022-07-29T14:36:41;4.00;;;1.33;;
21030;SDS011;61072;47.808;7.636;2022-07-29T14:39:08;2.60;;;1.55;;
21030;SDS011;61072;47.808;7.636;2022-07-29T14:41:35;2.15;;;1.20;;
21030;SDS011;61072;47.808;7.636;2022-07-29T14:44:02;2.63;;;1.17;;
21030;SDS011;61072;47.808;7.636;2022-07-29T14:46:29;5.70;;;1.70;;
21030;SDS011;61072;47.808;7.636;2022-07-29T14:48:55;2.28;;;1.10;;
21030;SDS011;61072;47.808;7.636;2022-07-29T14:51:22;3.70;;;1.20;;
21030;SDS011;61072;47.808;7.636;2022-07-29T14:53:57;3.28;;;1.20;;
21030;SDS011;61072;47.808;7.636;2022-07-29T14:56:24;1.90;;;1.05;;
21030;SDS011;61072;47.808;7.636;2022-07-29T14:59:11;2.60;;;1.25;;
21030;SDS011;61072;47.808;7.636;2022-07-29T15:01:37;3.40;;;1.30;;
21030;SDS011;61072;47.808;7.636;2022-07-29T15:04:04;4.07;;;1.00;;
21030;SDS011;61072;47.808;7.636;2022-07-29T15:06:31;4.30;;;1.20;;
21030;SDS011;61072;47.808;7.636;2022-07-29T15:08:57;1.45;;;0.98;;
21030;SDS011;61072;47.808;7.636;2022-07-29T15:11:24;2.20;;;1.15;;
21030;SDS011;61072;47.808;7.636;2022-07-29T15:13:51;2.08;;;1.00;;
21030;SDS011;61072;47.808;7.636;2022-07-29T15:16:18;2.47;;;1.17;;
21030;SDS011;61072;47.808;7.636;2022-07-29T15:18:45;4.20;;;1.20;;
21030;SDS011;61072;47.808;7.636;2022-07-29T15:21:11;5.05;;;1.30;;
21030;SDS011;61072;47.808;7.636;2022-07-29T15:23:38;5.00;;;0.93;;
21030;SDS011;61072;47.808;7.636;2022-07-29T15:26:05;3.65;;;1.00;;
21030;SDS011;61072;47.808;7.636;2022-07-29T15:28:32;3.95;;;1.00;;
21030;SDS011;61072;47.808;7.636;2022-07-29T15:30:58;2.53;;;1.08;;
21030;SDS011;61072;47.808;7.636;2022-07-29T15:33:25;2.28;;;1.05;;
21030;SDS011;61072;47.808;7.636;2022-07-29T15:35:52;7.63;;;1.50;;
21030;SDS011;61072;47.808;7.636;2022-07-29T15:38:19;4.82;;;1.00;;
21030;SDS011;61072;47.808;7.636;2022-07-29T15:40:54;3.08;;;1.17;;
21030;SDS011;61072;47.808;7.636;2022-07-29T15:43:21;3.38;;;1.52;;
21030;SDS011;61072;47.808;7.636;2022-07-29T15:45:51;2.13;;;1.00;;
21030;SDS011;61072;47.808;7.636;2022-07-29T15:48:38;4.10;;;1.20;;
21030;SDS011;61072;47.808;7.636;2022-07-29T15:51:05;2.65;;;1.23;;
21030;SDS011;61072;47.808;7.636;2022-07-29T15:53:31;2.90;;;1.58;;
21030;SDS011;61072;47.808;7.636;2022-07-29T15:56:00;2.65;;;1.30;;
21030;SDS011;61072;47.808;7.636;2022-07-29T15:58:27;5.00;;;1.20;;
21030;SDS011;61072;47.808;7.636;2022-07-29T16:00:54;3.45;;;1.02;;
21030;SDS011;61072;47.808;7.636;2022-07-29T16:03:21;4.43;;;0.88;;